Terminal Aerodrome Forecast
Issued by NWS

Home | Current Version | Previous Version | Graphics & Text | Print | Product List | Glossary On
Versions: 1 2 3 4 5 6 7 8 9 10 11 12 13 14 15 16 17
709
FTUS43 KGRB 090544
TAFMTW
TAF
KMTW 090544Z 0906/1006 29008KT P6SM FEW040
     FM091500 28011G16KT P6SM SCT045
     FM100000 27008KT P6SM SCT045=

USA.gov is the U.S. government's official web portal to all federal, state and local government web resources and services.